sensor_id;sensor_type;location;lat;lon;timestamp;temperature;humidity
66920;DHT22;53831;52.090;17.026;2023-04-25T00:00:57;9.20;99.90
66920;DHT22;53831;52.090;17.026;2023-04-25T00:01:57;9.20;99.90
66920;DHT22;53831;52.090;17.026;2023-04-25T00:03:00;9.20;99.90
66920;DHT22;53831;52.090;17.026;2023-04-25T00:04:00;9.10;99.90
66920;DHT22;53831;52.090;17.026;2023-04-25T00:05:01;9.10;99.90
66920;DHT22;53831;52.090;17.026;2023-04-25T00:06:02;9.10;99.90
66920;DHT22;53831;52.090;17.026;2023-04-25T00:07:03;9.10;99.90
66920;DHT22;53831;52.090;17.026;2023-04-25T00:08:04;9.10;99.90
66920;DHT22;53831;52.090;17.026;2023-04-25T00:09:05;9.00;99.90
66920;DHT22;53831;52.090;17.026;2023-04-25T00:10:08;9.00;99.90
66920;DHT22;53831;52.090;17.026;2023-04-25T00:11:09;9.00;99.90
66920;DHT22;53831;52.090;17.026;2023-04-25T00:12:10;9.00;99.90
66920;DHT22;53831;52.090;17.026;2023-04-25T00:13:10;9.00;99.90
66920;DHT22;53831;52.090;17.026;2023-04-25T00:14:11;9.00;99.90
66920;DHT22;53831;52.090;17.026;2023-04-25T00:15:12;9.00;99.90
66920;DHT22;53831;52.090;17.026;2023-04-25T00:16:13;9.00;99.90
66920;DHT22;53831;52.090;17.026;2023-04-25T00:17:15;8.90;99.90
66920;DHT22;53831;52.090;17.026;2023-04-25T00:18:17;8.90;99.90
66920;DHT22;53831;52.090;17.026;2023-04-25T00:19:18;8.90;99.90
66920;DHT22;53831;52.090;17.026;2023-04-25T00:20:18;8.90;99.90
66920;DHT22;53831;52.090;17.026;2023-04-25T00:21:19;8.90;99.90
66920;DHT22;53831;52.090;17.026;2023-04-25T00:22:20;8.90;99.90
66920;DHT22;53831;52.090;17.026;2023-04-25T00:23:21;8.90;99.90
66920;DHT22;53831;52.090;17.026;2023-04-25T00:24:21;8.90;99.90
66920;DHT22;53831;52.090;17.026;2023-04-25T00:25:22;8.80;99.90
66920;DHT22;53831;52.090;17.026;2023-04-25T00:26:23;8.80;99.90
66920;DHT22;53831;52.090;17.026;2023-04-25T00:27:24;8.80;99.90
66920;DHT22;53831;52.090;17.026;2023-04-25T00:28:24;8.80;99.90
66920;DHT22;53831;52.090;17.026;2023-04-25T00:29:25;8.80;99.90
66920;DHT22;53831;52.090;17.026;2023-04-25T00:30:26;8.80;99.90
66920;DHT22;53831;52.090;17.026;2023-04-25T00:31:26;8.80;99.90
66920;DHT22;53831;52.090;17.026;2023-04-25T00:32:27;8.70;99.90
66920;DHT22;53831;52.090;17.026;2023-04-25T00:34:28;8.70;99.90
66920;DHT22;53831;52.090;17.026;2023-04-25T00:36:30;8.70;99.90
66920;DHT22;53831;52.090;17.026;2023-04-25T00:38:31;8.70;99.90
66920;DHT22;53831;52.090;17.026;2023-04-25T00:40:32;8.70;99.90
66920;DHT22;53831;52.090;17.026;2023-04-25T00:42:34;8.70;99.90
66920;DHT22;53831;52.090;17.026;2023-04-25T00:44:35;8.70;99.90
66920;DHT22;53831;52.090;17.026;2023-04-25T00:46:36;8.70;99.90
66920;DHT22;53831;52.090;17.026;2023-04-25T00:48:38;8.70;99.90
66920;DHT22;53831;52.090;17.026;2023-04-25T00:50:39;8.70;99.90
66920;DHT22;53831;52.090;17.026;2023-04-25T00:52:43;8.70;99.90
66920;DHT22;53831;52.090;17.026;2023-04-25T00:54:42;8.60;99.90
66920;DHT22;53831;52.090;17.026;2023-04-25T00:56:43;8.60;99.90
66920;DHT22;53831;52.090;17.026;2023-04-25T00:58:44;8.60;99.90
66920;DHT22;53831;52.090;17.026;2023-04-25T01:00:46;8.60;99.90
66920;DHT22;53831;52.090;17.026;2023-04-25T01:02:47;8.50;99.90
66920;DHT22;53831;52.090;17.026;2023-04-25T01:04:48;8.50;99.90
66920;DHT22;53831;52.090;17.026;2023-04-25T01:06:50;8.50;99.90
66920;DHT22;53831;52.090;17.026;2023-04-25T01:08:51;8.50;99.90
66920;DHT22;53831;52.090;17.026;2023-04-25T01:10:52;8.50;99.90
66920;DHT22;53831;52.090;17.026;2023-04-25T01:12:54;8.50;99.90
66920;DHT22;53831;52.090;17.026;2023-04-25T01:14:55;8.50;99.90
66920;DHT22;53831;52.090;17.026;2023-04-25T01:16:56;8.40;99.90
66920;DHT22;53831;52.090;17.026;2023-04-25T01:18:58;8.40;99.90
66920;DHT22;53831;52.090;17.026;2023-04-25T01:21:06;8.30;99.90
66920;DHT22;53831;52.090;17.026;2023-04-25T01:23:03;8.30;99.90
66920;DHT22;53831;52.090;17.026;2023-04-25T01:25:04;8.30;99.90
66920;DHT22;53831;52.090;17.026;2023-04-25T01:27:06;8.20;99.90
66920;DHT22;53831;52.090;17.026;2023-04-25T01:29:07;8.20;99.90
66920;DHT22;53831;52.090;17.026;2023-04-25T01:31:08;8.20;99.90
66920;DHT22;53831;52.090;17.026;2023-04-25T01:33:10;8.20;99.90
66920;DHT22;53831;52.090;17.026;2023-04-25T01:35:11;8.10;99.90
66920;DHT22;53831;52.090;17.026;2023-04-25T01:37:12;8.10;99.90
66920;DHT22;53831;52.090;17.026;2023-04-25T01:39:14;8.10;99.90
66920;DHT22;53831;52.090;17.026;2023-04-25T01:41:15;8.10;99.90
66920;DHT22;53831;52.090;17.026;2023-04-25T01:43:16;8.10;99.90
66920;DHT22;53831;52.090;17.026;2023-04-25T01:45:18;8.10;99.90
66920;DHT22;53831;52.090;17.026;2023-04-25T01:47:19;8.10;99.90
66920;DHT22;53831;52.090;17.026;2023-04-25T01:49:20;8.10;99.90
66920;DHT22;53831;52.090;17.026;2023-04-25T01:51:22;8.00;99.90
66920;DHT22;53831;52.090;17.026;2023-04-25T01:53:23;8.00;99.90
66920;DHT22;53831;52.090;17.026;2023-04-25T01:55:24;8.00;99.90
66920;DHT22;53831;52.090;17.026;2023-04-25T01:57:26;8.00;99.90
66920;DHT22;53831;52.090;17.026;2023-04-25T01:59:25;8.00;99.90
66920;DHT22;53831;52.090;17.026;2023-04-25T02:01:15;8.00;99.90
66920;DHT22;53831;52.090;17.026;2023-04-25T02:03:17;8.00;99.90
66920;DHT22;53831;52.090;17.026;2023-04-25T02:05:18;8.00;99.90
66920;DHT22;53831;52.090;17.026;2023-04-25T02:07:20;7.90;99.90
66920;DHT22;53831;52.090;17.026;2023-04-25T02:09:21;7.90;99.90
66920;DHT22;53831;52.090;17.026;2023-04-25T02:11:22;7.90;99.90
66920;DHT22;53831;52.090;17.026;2023-04-25T02:13:29;7.90;99.90
66920;DHT22;53831;52.090;17.026;2023-04-25T02:15:36;7.80;99.90
66920;DHT22;53831;52.090;17.026;2023-04-25T02:17:37;7.80;99.90
66920;DHT22;53831;52.090;17.026;2023-04-25T02:19:39;7.80;99.90
66920;DHT22;53831;52.090;17.026;2023-04-25T02:21:40;7.90;99.90
66920;DHT22;53831;52.090;17.026;2023-04-25T02:23:41;7.90;99.90
66920;DHT22;53831;52.090;17.026;2023-04-25T02:25:43;7.80;99.90
66920;DHT22;53831;52.090;17.026;2023-04-25T02:26:57;7.80;99.90
66920;DHT22;53831;52.090;17.026;2023-04-25T02:27:58;7.80;99.90
66920;DHT22;53831;52.090;17.026;2023-04-25T02:28:59;7.80;99.90
66920;DHT22;53831;52.090;17.026;2023-04-25T02:30:00;7.80;99.90
66920;DHT22;53831;52.090;17.026;2023-04-25T02:31:01;7.70;99.90
66920;DHT22;53831;52.090;17.026;2023-04-25T02:32:01;7.70;99.90
66920;DHT22;53831;52.090;17.026;2023-04-25T02:33:02;7.70;99.90
66920;DHT22;53831;52.090;17.026;2023-04-25T02:34:03;7.70;99.90
66920;DHT22;53831;52.090;17.026;2023-04-25T02:35:05;7.70;99.90
66920;DHT22;53831;52.090;17.026;2023-04-25T02:36:06;7.70;99.90
66920;DHT22;53831;52.090;17.026;2023-04-25T02:37:07;7.70;99.90
66920;DHT22;53831;52.090;17.026;2023-04-25T02:38:07;7.60;99.90
66920;DHT22;53831;52.090;17.026;2023-04-25T02:39:08;7.60;99.90
66920;DHT22;53831;52.090;17.026;2023-04-25T02:40:08;7.60;99.90
66920;DHT22;53831;52.090;17.026;2023-04-25T02:41:09;7.60;99.90
66920;DHT22;53831;52.090;17.026;2023-04-25T02:42:10;7.60;99.90
66920;DHT22;53831;52.090;17.026;2023-04-25T02:43:11;7.70;99.90
66920;DHT22;53831;52.090;17.026;2023-04-25T02:44:11;7.60;99.90
66920;DHT22;53831;52.090;17.026;2023-04-25T02:45:12;7.70;99.90
66920;DHT22;53831;52.090;17.026;2023-04-25T02:46:12;7.60;99.90
66920;DHT22;53831;52.090;17.026;2023-04-25T02:47:14;7.60;99.90
66920;DHT22;53831;52.090;17.026;2023-04-25T02:48:14;7.60;99.90
66920;DHT22;53831;52.090;17.026;2023-04-25T02:49:15;7.60;99.90
66920;DHT22;53831;52.090;17.026;2023-04-25T02:50:15;7.60;99.90
66920;DHT22;53831;52.090;17.026;2023-04-25T02:51:16;7.60;99.90
66920;DHT22;53831;52.090;17.026;2023-04-25T02:52:17;7.60;99.90
66920;DHT22;53831;52.090;17.026;2023-04-25T02:53:18;7.60;99.90
66920;DHT22;53831;52.090;17.026;2023-04-25T02:54:22;7.60;99.90
66920;DHT22;53831;52.090;17.026;2023-04-25T02:55:23;7.60;99.90
66920;DHT22;53831;52.090;17.026;2023-04-25T02:56:23;7.60;99.90
66920;DHT22;53831;52.090;17.026;2023-04-25T02:57:26;7.60;99.90
66920;DHT22;53831;52.090;17.026;2023-04-25T02:58:27;7.60;99.90
66920;DHT22;53831;52.090;17.026;2023-04-25T02:59:28;7.60;99.90
66920;DHT22;53831;52.090;17.026;2023-04-25T03:00:28;7.60;99.90
66920;DHT22;53831;52.090;17.026;2023-04-25T03:01:29;7.60;99.90
66920;DHT22;53831;52.090;17.026;2023-04-25T03:02:30;7.60;99.90
66920;DHT22;53831;52.090;17.026;2023-04-25T03:03:30;7.60;99.90
66920;DHT22;53831;52.090;17.026;2023-04-25T03:04:31;7.60;99.90
66920;DHT22;53831;52.090;17.026;2023-04-25T03:05:31;7.60;99.90
66920;DHT22;53831;52.090;17.026;2023-04-25T03:06:32;7.60;99.90
66920;DHT22;53831;52.090;17.026;2023-04-25T03:07:33;7.60;99.90
66920;DHT22;53831;52.090;17.026;2023-04-25T03:08:33;7.60;99.90
66920;DHT22;53831;52.090;17.026;2023-04-25T03:09:35;7.50;99.90
66920;DHT22;53831;52.090;17.026;2023-04-25T03:10:36;7.50;99.90
66920;DHT22;53831;52.090;17.026;2023-04-25T03:11:39;7.60;99.90
66920;DHT22;53831;52.090;17.026;2023-04-25T03:12:40;7.60;99.90
66920;DHT22;53831;52.090;17.026;2023-04-25T03:13:41;7.50;99.90
66920;DHT22;53831;52.090;17.026;2023-04-25T03:14:42;7.50;99.90
66920;DHT22;53831;52.090;17.026;2023-04-25T03:15:43;7.50;99.90
66920;DHT22;53831;52.090;17.026;2023-04-25T03:16:43;7.50;99.90
66920;DHT22;53831;52.090;17.026;2023-04-25T03:17:44;7.60;99.90
66920;DHT22;53831;52.090;17.026;2023-04-25T03:18:47;7.60;99.90
66920;DHT22;53831;52.090;17.026;2023-04-25T03:19:50;7.60;99.90
66920;DHT22;53831;52.090;17.026;2023-04-25T03:20:50;7.50;99.90
66920;DHT22;53831;52.090;17.026;2023-04-25T03:21:51;7.50;99.90
66920;DHT22;53831;52.090;17.026;2023-04-25T03:22:51;7.50;99.90
66920;DHT22;53831;52.090;17.026;2023-04-25T03:23:52;7.50;99.90
66920;DHT22;53831;52.090;17.026;2023-04-25T03:24:53;7.50;99.90
66920;DHT22;53831;52.090;17.026;2023-04-25T03:25:54;7.50;99.90
66920;DHT22;53831;52.090;17.026;2023-04-25T03:26:54;7.50;99.90
66920;DHT22;53831;52.090;17.026;2023-04-25T03:27:55;7.50;99.90
66920;DHT22;53831;52.090;17.026;2023-04-25T03:28:56;7.50;99.90
66920;DHT22;53831;52.090;17.026;2023-04-25T03:29:57;7.50;99.90
66920;DHT22;53831;52.090;17.026;2023-04-25T03:30:58;7.50;99.90
66920;DHT22;53831;52.090;17.026;2023-04-25T03:31:59;7.50;99.90
66920;DHT22;53831;52.090;17.026;2023-04-25T03:32:59;7.40;99.90
66920;DHT22;53831;52.090;17.026;2023-04-25T03:34:00;7.40;99.90
66920;DHT22;53831;52.090;17.026;2023-04-25T03:35:00;7.50;99.90
66920;DHT22;53831;52.090;17.026;2023-04-25T03:36:01;7.40;99.90
66920;DHT22;53831;52.090;17.026;2023-04-25T03:37:02;7.40;99.90
66920;DHT22;53831;52.090;17.026;2023-04-25T03:38:04;7.40;99.90
66920;DHT22;53831;52.090;17.026;2023-04-25T03:39:09;7.50;99.90
66920;DHT22;53831;52.090;17.026;2023-04-25T03:40:10;7.40;99.90
66920;DHT22;53831;52.090;17.026;2023-04-25T03:41:30;7.50;99.90
66920;DHT22;53831;52.090;17.026;2023-04-25T03:42:36;7.40;99.90
66920;DHT22;53831;52.090;17.026;2023-04-25T03:43:36;7.40;99.90
66920;DHT22;53831;52.090;17.026;2023-04-25T03:44:39;7.40;99.90
66920;DHT22;53831;52.090;17.026;2023-04-25T03:45:40;7.40;99.90
66920;DHT22;53831;52.090;17.026;2023-04-25T03:46:41;7.40;99.90
66920;DHT22;53831;52.090;17.026;2023-04-25T03:47:41;7.40;99.90
66920;DHT22;53831;52.090;17.026;2023-04-25T03:48:42;7.40;99.90
66920;DHT22;53831;52.090;17.026;2023-04-25T03:49:43;7.40;99.90
66920;DHT22;53831;52.090;17.026;2023-04-25T03:50:45;7.40;99.90
66920;DHT22;53831;52.090;17.026;2023-04-25T03:51:45;7.40;99.90
66920;DHT22;53831;52.090;17.026;2023-04-25T03:52:46;7.40;99.90
66920;DHT22;53831;52.090;17.026;2023-04-25T03:53:47;7.30;99.90
66920;DHT22;53831;52.090;17.026;2023-04-25T03:54:54;7.40;99.90
66920;DHT22;53831;52.090;17.026;2023-04-25T03:55:57;7.40;99.90
66920;DHT22;53831;52.090;17.026;2023-04-25T03:56:58;7.40;99.90
66920;DHT22;53831;52.090;17.026;2023-04-25T03:58:01;7.50;99.90
66920;DHT22;53831;52.090;17.026;2023-04-25T03:59:01;7.50;99.90
66920;DHT22;53831;52.090;17.026;2023-04-25T04:00:02;7.50;99.90
66920;DHT22;53831;52.090;17.026;2023-04-25T04:01:13;7.50;99.90
66920;DHT22;53831;52.090;17.026;2023-04-25T04:02:14;7.50;99.90
66920;DHT22;53831;52.090;17.026;2023-04-25T04:03:15;7.50;99.90
66920;DHT22;53831;52.090;17.026;2023-04-25T04:04:15;7.60;99.90
66920;DHT22;53831;52.090;17.026;2023-04-25T04:05:16;7.60;99.90
66920;DHT22;53831;52.090;17.026;2023-04-25T04:06:23;7.60;99.90
66920;DHT22;53831;52.090;17.026;2023-04-25T04:07:29;7.60;99.90
66920;DHT22;53831;52.090;17.026;2023-04-25T04:08:32;7.60;99.90
66920;DHT22;53831;52.090;17.026;2023-04-25T04:09:32;7.60;99.90
66920;DHT22;53831;52.090;17.026;2023-04-25T04:10:34;7.60;99.90
66920;DHT22;53831;52.090;17.026;2023-04-25T04:11:35;7.60;99.90
66920;DHT22;53831;52.090;17.026;2023-04-25T04:12:37;7.60;99.90
66920;DHT22;53831;52.090;17.026;2023-04-25T04:13:38;7.60;99.90
66920;DHT22;53831;52.090;17.026;2023-04-25T04:14:39;7.60;99.90
66920;DHT22;53831;52.090;17.026;2023-04-25T04:15:40;7.70;99.90
66920;DHT22;53831;52.090;17.026;2023-04-25T04:16:41;7.70;99.90
66920;DHT22;53831;52.090;17.026;2023-04-25T04:17:43;7.70;99.90
66920;DHT22;53831;52.090;17.026;2023-04-25T04:18:44;7.70;99.90
66920;DHT22;53831;52.090;17.026;2023-04-25T04:19:45;7.70;99.90
66920;DHT22;53831;52.090;17.026;2023-04-25T04:20:52;7.70;99.90
66920;DHT22;53831;52.090;17.026;2023-04-25T04:21:53;7.70;99.90
66920;DHT22;53831;52.090;17.026;2023-04-25T04:22:53;7.70;99.90
66920;DHT22;53831;52.090;17.026;2023-04-25T04:23:54;7.80;99.90
66920;DHT22;53831;52.090;17.026;2023-04-25T04:24:55;7.80;99.90
66920;DHT22;53831;52.090;17.026;2023-04-25T04:26:17;7.80;99.90
66920;DHT22;53831;52.090;17.026;2023-04-25T04:27:27;7.80;99.90
66920;DHT22;53831;52.090;17.026;2023-04-25T04:28:45;7.80;99.90
66920;DHT22;53831;52.090;17.026;2023-04-25T04:29:57;7.80;99.90
66920;DHT22;53831;52.090;17.026;2023-04-25T04:31:04;7.80;99.90
66920;DHT22;53831;52.090;17.026;2023-04-25T04:32:04;7.80;99.90
66920;DHT22;53831;52.090;17.026;2023-04-25T04:33:06;7.80;99.90
66920;DHT22;53831;52.090;17.026;2023-04-25T04:34:07;7.80;99.90
66920;DHT22;53831;52.090;17.026;2023-04-25T04:35:08;7.80;99.90
66920;DHT22;53831;52.090;17.026;2023-04-25T04:36:14;7.80;99.90
66920;DHT22;53831;52.090;17.026;2023-04-25T04:37:16;7.80;99.90
66920;DHT22;53831;52.090;17.026;2023-04-25T04:38:17;7.90;99.90
66920;DHT22;53831;52.090;17.026;2023-04-25T04:39:18;7.90;99.90
66920;DHT22;53831;52.090;17.026;2023-04-25T04:40:32;7.90;99.90
66920;DHT22;53831;52.090;17.026;2023-04-25T04:41:41;7.90;99.90
66920;DHT22;53831;52.090;17.026;2023-04-25T04:42:48;7.90;99.90
66920;DHT22;53831;52.090;17.026;2023-04-25T04:44:08;7.90;99.90
66920;DHT22;53831;52.090;17.026;2023-04-25T04:45:29;7.90;99.90
66920;DHT22;53831;52.090;17.026;2023-04-25T04:46:53;8.00;99.90
66920;DHT22;53831;52.090;17.026;2023-04-25T04:48:14;8.00;99.90
66920;DHT22;53831;52.090;17.026;2023-04-25T04:49:47;8.00;99.90
66920;DHT22;53831;52.090;17.026;2023-04-25T04:51:16;8.00;99.90
66920;DHT22;53831;52.090;17.026;2023-04-25T04:52:49;8.10;99.90
66920;DHT22;53831;52.090;17.026;2023-04-25T04:54:08;8.20;99.90
66920;DHT22;53831;52.090;17.026;2023-04-25T04:55:27;8.20;99.90
66920;DHT22;53831;52.090;17.026;2023-04-25T04:56:40;8.30;99.90
66920;DHT22;53831;52.090;17.026;2023-04-25T04:58:00;8.30;99.90
66920;DHT22;53831;52.090;17.026;2023-04-25T04:59:11;8.40;99.90
66920;DHT22;53831;52.090;17.026;2023-04-25T05:00:32;8.40;99.90
66920;DHT22;53831;52.090;17.026;2023-04-25T05:01:46;8.40;99.90
66920;DHT22;53831;52.090;17.026;2023-04-25T05:03:09;8.40;99.90
66920;DHT22;53831;52.090;17.026;2023-04-25T05:04:23;8.50;99.90
66920;DHT22;53831;52.090;17.026;2023-04-25T05:05:53;8.50;99.90
66920;DHT22;53831;52.090;17.026;2023-04-25T05:07:14;8.50;99.90
66920;DHT22;53831;52.090;17.026;2023-04-25T05:08:36;8.50;99.90
66920;DHT22;53831;52.090;17.026;2023-04-25T05:10:00;8.60;99.90
66920;DHT22;53831;52.090;17.026;2023-04-25T05:11:24;8.60;99.90
66920;DHT22;53831;52.090;17.026;2023-04-25T05:12:46;8.70;99.90
66920;DHT22;53831;52.090;17.026;2023-04-25T05:14:05;8.60;99.90
66920;DHT22;53831;52.090;17.026;2023-04-25T05:15:17;8.70;99.90
66920;DHT22;53831;52.090;17.026;2023-04-25T05:16:27;8.70;99.90
66920;DHT22;53831;52.090;17.026;2023-04-25T05:17:47;8.70;99.90
66920;DHT22;53831;52.090;17.026;2023-04-25T05:19:13;8.80;99.90
66920;DHT22;53831;52.090;17.026;2023-04-25T05:20:36;8.90;99.90
66920;DHT22;53831;52.090;17.026;2023-04-25T05:21:53;8.90;99.90
66920;DHT22;53831;52.090;17.026;2023-04-25T05:23:17;8.90;99.90
66920;DHT22;53831;52.090;17.026;2023-04-25T05:24:29;8.90;99.90
66920;DHT22;53831;52.090;17.026;2023-04-25T05:25:51;9.00;99.90
66920;DHT22;53831;52.090;17.026;2023-04-25T05:27:21;9.10;99.90
66920;DHT22;53831;52.090;17.026;2023-04-25T05:28:42;9.10;99.90
66920;DHT22;53831;52.090;17.026;2023-04-25T05:30:10;9.20;99.90
66920;DHT22;53831;52.090;17.026;2023-04-25T05:31:36;9.30;99.90
66920;DHT22;53831;52.090;17.026;2023-04-25T05:32:43;9.40;99.90
66920;DHT22;53831;52.090;17.026;2023-04-25T05:33:44;9.30;99.90
66920;DHT22;53831;52.090;17.026;2023-04-25T05:34:45;9.30;99.90
66920;DHT22;53831;52.090;17.026;2023-04-25T05:35:54;9.30;99.90
66920;DHT22;53831;52.090;17.026;2023-04-25T05:36:55;9.30;99.90
66920;DHT22;53831;52.090;17.026;2023-04-25T05:37:56;9.30;99.90
66920;DHT22;53831;52.090;17.026;2023-04-25T05:39:09;9.20;99.90
66920;DHT22;53831;52.090;17.026;2023-04-25T05:40:36;9.10;99.90
66920;DHT22;53831;52.090;17.026;2023-04-25T05:41:46;9.00;99.90
66920;DHT22;53831;52.090;17.026;2023-04-25T05:43:03;9.00;99.90
66920;DHT22;53831;52.090;17.026;2023-04-25T05:44:18;9.00;99.90
66920;DHT22;53831;52.090;17.026;2023-04-25T05:45:24;9.10;99.90
66920;DHT22;53831;52.090;17.026;2023-04-25T05:46:43;9.00;99.90
66920;DHT22;53831;52.090;17.026;2023-04-25T05:47:49;9.10;99.90
66920;DHT22;53831;52.090;17.026;2023-04-25T05:49:10;9.10;99.90
66920;DHT22;53831;52.090;17.026;2023-04-25T05:50:30;9.10;99.90
66920;DHT22;53831;52.090;17.026;2023-04-25T05:51:38;9.10;99.90
66920;DHT22;53831;52.090;17.026;2023-04-25T05:53:02;9.10;99.90
66920;DHT22;53831;52.090;17.026;2023-04-25T05:54:05;9.10;99.90
66920;DHT22;53831;52.090;17.026;2023-04-25T05:55:07;9.10;99.90
66920;DHT22;53831;52.090;17.026;2023-04-25T05:56:09;9.20;99.90
66920;DHT22;53831;52.090;17.026;2023-04-25T05:57:17;9.20;99.90
66920;DHT22;53831;52.090;17.026;2023-04-25T05:58:18;9.20;99.90
66920;DHT22;53831;52.090;17.026;2023-04-25T05:59:19;9.20;99.90
66920;DHT22;53831;52.090;17.026;2023-04-25T06:00:20;9.30;99.90
66920;DHT22;53831;52.090;17.026;2023-04-25T06:01:23;9.30;99.90
66920;DHT22;53831;52.090;17.026;2023-04-25T06:02:23;9.30;99.90
66920;DHT22;53831;52.090;17.026;2023-04-25T06:03:24;9.30;99.90
66920;DHT22;53831;52.090;17.026;2023-04-25T06:04:25;9.30;99.90
66920;DHT22;53831;52.090;17.026;2023-04-25T06:05:26;9.40;99.90
66920;DHT22;53831;52.090;17.026;2023-04-25T06:06:26;9.30;99.90
66920;DHT22;53831;52.090;17.026;2023-04-25T06:07:27;9.30;99.90
66920;DHT22;53831;52.090;17.026;2023-04-25T06:08:28;9.20;99.90
66920;DHT22;53831;52.090;17.026;2023-04-25T06:09:28;9.30;99.90
66920;DHT22;53831;52.090;17.026;2023-04-25T06:10:29;9.30;99.90
66920;DHT22;53831;52.090;17.026;2023-04-25T06:11:30;9.30;99.90
66920;DHT22;53831;52.090;17.026;2023-04-25T06:12:30;9.20;99.90
66920;DHT22;53831;52.090;17.026;2023-04-25T06:13:31;9.30;99.90
66920;DHT22;53831;52.090;17.026;2023-04-25T06:14:32;9.30;99.90
66920;DHT22;53831;52.090;17.026;2023-04-25T06:15:33;9.40;99.90
66920;DHT22;53831;52.090;17.026;2023-04-25T06:16:34;9.50;99.90
66920;DHT22;53831;52.090;17.026;2023-04-25T06:17:35;9.50;99.90
66920;DHT22;53831;52.090;17.026;2023-04-25T06:18:36;9.50;99.90
66920;DHT22;53831;52.090;17.026;2023-04-25T06:19:37;9.50;99.90
66920;DHT22;53831;52.090;17.026;2023-04-25T06:20:38;9.50;99.90
66920;DHT22;53831;52.090;17.026;2023-04-25T06:21:38;9.50;99.90
66920;DHT22;53831;52.090;17.026;2023-04-25T06:22:39;9.50;99.90
66920;DHT22;53831;52.090;17.026;2023-04-25T06:23:40;9.40;99.90
66920;DHT22;53831;52.090;17.026;2023-04-25T06:24:42;9.40;99.90
66920;DHT22;53831;52.090;17.026;2023-04-25T06:25:42;9.30;99.90
66920;DHT22;53831;52.090;17.026;2023-04-25T06:26:43;9.40;99.90
66920;DHT22;53831;52.090;17.026;2023-04-25T06:27:44;9.40;99.90
66920;DHT22;53831;52.090;17.026;2023-04-25T06:28:46;9.50;99.90
66920;DHT22;53831;52.090;17.026;2023-04-25T06:29:47;9.60;99.90
66920;DHT22;53831;52.090;17.026;2023-04-25T06:30:48;9.50;99.90
66920;DHT22;53831;52.090;17.026;2023-04-25T06:31:51;9.70;99.90
66920;DHT22;53831;52.090;17.026;2023-04-25T06:32:52;9.60;99.90
66920;DHT22;53831;52.090;17.026;2023-04-25T06:33:53;9.60;99.90
66920;DHT22;53831;52.090;17.026;2023-04-25T06:34:55;9.60;99.90
66920;DHT22;53831;52.090;17.026;2023-04-25T06:35:56;9.70;99.90
66920;DHT22;53831;52.090;17.026;2023-04-25T06:36:59;9.70;99.90
66920;DHT22;53831;52.090;17.026;2023-04-25T06:38:00;9.60;99.90
66920;DHT22;53831;52.090;17.026;2023-04-25T06:39:00;9.60;99.90
66920;DHT22;53831;52.090;17.026;2023-04-25T06:40:01;9.70;99.90
66920;DHT22;53831;52.090;17.026;2023-04-25T06:41:03;9.70;99.90
66920;DHT22;53831;52.090;17.026;2023-04-25T06:42:05;9.80;99.90
66920;DHT22;53831;52.090;17.026;2023-04-25T06:43:30;9.80;99.90
66920;DHT22;53831;52.090;17.026;2023-04-25T06:44:59;9.80;99.90
66920;DHT22;53831;52.090;17.026;2023-04-25T06:46:02;9.80;99.90
66920;DHT22;53831;52.090;17.026;2023-04-25T06:47:03;9.80;99.90
66920;DHT22;53831;52.090;17.026;2023-04-25T06:48:04;9.80;99.90
66920;DHT22;53831;52.090;17.026;2023-04-25T06:49:04;9.70;99.90
66920;DHT22;53831;52.090;17.026;2023-04-25T06:50:05;9.70;99.90
66920;DHT22;53831;52.090;17.026;2023-04-25T06:51:07;9.80;99.90
66920;DHT22;53831;52.090;17.026;2023-04-25T06:52:08;9.90;99.90
66920;DHT22;53831;52.090;17.026;2023-04-25T06:53:09;9.90;99.90
66920;DHT22;53831;52.090;17.026;2023-04-25T06:54:10;9.90;99.90
66920;DHT22;53831;52.090;17.026;2023-04-25T06:55:15;9.90;99.90
66920;DHT22;53831;52.090;17.026;2023-04-25T06:56:29;9.80;99.90
66920;DHT22;53831;52.090;17.026;2023-04-25T06:57:36;9.80;99.90
66920;DHT22;53831;52.090;17.026;2023-04-25T06:58:53;9.80;99.90
66920;DHT22;53831;52.090;17.026;2023-04-25T07:00:03;9.90;99.90
66920;DHT22;53831;52.090;17.026;2023-04-25T07:01:07;9.90;99.90
66920;DHT22;53831;52.090;17.026;2023-04-25T07:02:08;9.80;99.90
66920;DHT22;53831;52.090;17.026;2023-04-25T07:03:09;9.80;99.90
66920;DHT22;53831;52.090;17.026;2023-04-25T07:04:10;9.90;99.90
66920;DHT22;53831;52.090;17.026;2023-04-25T07:05:13;9.90;99.90
66920;DHT22;53831;52.090;17.026;2023-04-25T07:06:14;10.00;99.90
66920;DHT22;53831;52.090;17.026;2023-04-25T07:07:15;10.00;99.90
66920;DHT22;53831;52.090;17.026;2023-04-25T07:08:21;10.20;99.90
66920;DHT22;53831;52.090;17.026;2023-04-25T07:09:22;10.30;99.90
66920;DHT22;53831;52.090;17.026;2023-04-25T07:10:23;10.30;99.90
66920;DHT22;53831;52.090;17.026;2023-04-25T07:11:23;10.30;99.90
66920;DHT22;53831;52.090;17.026;2023-04-25T07:12:24;10.30;99.90
66920;DHT22;53831;52.090;17.026;2023-04-25T07:13:25;10.30;99.90
66920;DHT22;53831;52.090;17.026;2023-04-25T07:14:26;10.40;99.90
66920;DHT22;53831;52.090;17.026;2023-04-25T07:15:26;10.40;99.90
66920;DHT22;53831;52.090;17.026;2023-04-25T07:16:27;10.40;99.90
66920;DHT22;53831;52.090;17.026;2023-04-25T07:17:28;10.40;99.90
66920;DHT22;53831;52.090;17.026;2023-04-25T07:18:29;10.30;99.90
66920;DHT22;53831;52.090;17.026;2023-04-25T07:19:31;10.30;99.90
66920;DHT22;53831;52.090;17.026;2023-04-25T07:20:33;10.40;99.90
66920;DHT22;53831;52.090;17.026;2023-04-25T07:21:34;10.30;99.90
66920;DHT22;53831;52.090;17.026;2023-04-25T07:22:35;10.40;99.90
66920;DHT22;53831;52.090;17.026;2023-04-25T07:23:37;10.40;99.90
66920;DHT22;53831;52.090;17.026;2023-04-25T07:24:43;10.50;99.90
66920;DHT22;53831;52.090;17.026;2023-04-25T07:25:47;10.60;99.90
66920;DHT22;53831;52.090;17.026;2023-04-25T07:26:50;10.60;99.90
66920;DHT22;53831;52.090;17.026;2023-04-25T07:28:01;10.60;99.90
66920;DHT22;53831;52.090;17.026;2023-04-25T07:29:02;10.70;99.90
66920;DHT22;53831;52.090;17.026;2023-04-25T07:30:02;10.60;99.90
66920;DHT22;53831;52.090;17.026;2023-04-25T07:31:04;10.70;99.90
66920;DHT22;53831;52.090;17.026;2023-04-25T07:32:06;10.70;99.90
66920;DHT22;53831;52.090;17.026;2023-04-25T07:33:07;10.70;99.90
66920;DHT22;53831;52.090;17.026;2023-04-25T07:34:08;10.70;99.90
66920;DHT22;53831;52.090;17.026;2023-04-25T07:35:09;10.70;99.90
66920;DHT22;53831;52.090;17.026;2023-04-25T07:36:10;10.70;99.90
66920;DHT22;53831;52.090;17.026;2023-04-25T07:37:11;10.60;99.90
66920;DHT22;53831;52.090;17.026;2023-04-25T07:38:19;10.60;99.90
66920;DHT22;53831;52.090;17.026;2023-04-25T07:39:20;10.60;99.90
66920;DHT22;53831;52.090;17.026;2023-04-25T07:40:22;10.60;99.90
66920;DHT22;53831;52.090;17.026;2023-04-25T07:41:25;10.70;99.90
66920;DHT22;53831;52.090;17.026;2023-04-25T07:42:26;10.70;99.90